地図

経路データ

SID SEASON NUMBER BASIN SUBBASIN NAME ISO_TIME NATURE LAT LON WMO_WIND WMO_PRES WMO_AGENCY TRACK_TYPE DIST2LAND LANDFALL IFLAG USA_AGENCY USA_ATCF_ID USA_LAT USA_LON USA_RECORD USA_STATUS USA_WIND USA_PRES USA_SSHS USA_R34_NE USA_R34_SE USA_R34_SW USA_R34_NW USA_R50_NE USA_R50_SE USA_R50_SW USA_R50_NW USA_R64_NE USA_R64_SE USA_R64_SW USA_R64_NW USA_POCI USA_ROCI USA_RMW USA_EYE TOKYO_LAT TOKYO_LON TOKYO_GRADE TOKYO_WIND TOKYO_PRES TOKYO_R50_DIR TOKYO_R50_LONG TOKYO_R50_SHORT TOKYO_R30_DIR TOKYO_R30_LONG TOKYO_R30_SHORT TOKYO_LAND CMA_LAT CMA_LON CMA_CAT CMA_WIND CMA_PRES HKO_LAT HKO_LON HKO_CAT HKO_WIND HKO_PRES NEWDELHI_LAT NEWDELHI_LON NEWDELHI_GRADE NEWDELHI_WIND NEWDELHI_PRES NEWDELHI_CI NEWDELHI_DP NEWDELHI_POCI REUNION_LAT REUNION_LON REUNION_TYPE REUNION_WIND REUNION_PRES REUNION_TNUM REUNION_CI REUNION_RMW REUNION_R34_NE REUNION_R34_SE REUNION_R34_SW REUNION_R34_NW REUNION_R50_NE REUNION_R50_SE REUNION_R50_SW REUNION_R50_NW REUNION_R64_NE REUNION_R64_SE REUNION_R64_SW REUNION_R64_NW BOM_LAT BOM_LON BOM_TYPE BOM_WIND BOM_PRES BOM_TNUM BOM_CI BOM_RMW BOM_R34_NE BOM_R34_SE BOM_R34_SW BOM_R34_NW BOM_R50_NE BOM_R50_SE BOM_R50_SW BOM_R50_NW BOM_R64_NE BOM_R64_SE BOM_R64_SW BOM_R64_NW BOM_ROCI BOM_POCI BOM_EYE BOM_POS_METHOD BOM_PRES_METHOD NADI_LAT NADI_LON NADI_CAT NADI_WIND NADI_PRES WELLINGTON_LAT WELLINGTON_LON WELLINGTON_WIND WELLINGTON_PRES DS824_LAT DS824_LON DS824_STAGE DS824_WIND DS824_PRES TD9636_LAT TD9636_LON TD9636_STAGE TD9636_WIND TD9636_PRES TD9635_LAT TD9635_LON TD9635_WIND TD9635_PRES TD9635_ROCI NEUMANN_LAT NEUMANN_LON NEUMANN_CLASS NEUMANN_WIND NEUMANN_PRES MLC_LAT MLC_LON MLC_CLASS MLC_WIND MLC_PRES USA_GUST BOM_GUST BOM_GUST_PER REUNION_GUST REUNION_GUST_PER USA_SEAHGT USA_SEARAD_NE USA_SEARAD_SE USA_SEARAD_SW USA_SEARAD_NW STORM_SPEED STORM_DIR
2015213S08169 2016 56 SP MM NOT_NAMED 2015-07-31 18:00:00 NR -7.60000 168.900 main 803 803 O_____________ jtwc_sh SH012016 -7.60000 168.900 DB 20 1004 -3 1008 160 45 9 114
2015213S08169 2016 56 SP MM NOT_NAMED 2015-07-31 21:00:00 NR -7.77758 169.307 main 826 818 P_____________ SH012016 -7.77758 169.307 DB 20 1004 -3 1007 167 45 9 117
2015213S08169 2016 56 SP MM NOT_NAMED 2015-08-01 00:00:00 NR -8.00000 169.700 main 822 806 O_____________ jtwc_sh SH012016 -8.00000 169.700 DB 20 1004 -3 1006 175 45 9 125
2015213S08169 2016 56 SP MM NOT_NAMED 2015-08-01 03:00:00 NR -8.30497 170.065 main 811 789 P_____________ SH012016 -8.30497 170.065 DB 22 1004 -3 1006 175 45 10 135
2015213S08169 2016 56 SP MM NOT_NAMED 2015-08-01 06:00:00 TS -8.70000 170.400 main 789 758 O_____________ jtwc_sh SH012016 -8.70000 170.400 TD 25 1004 -1 1006 175 45 11 144
2015213S08169 2016 56 SP MM NOT_NAMED 2015-08-01 09:00:00 TS -9.18499 170.722 main 758 729 P_____________ SH012016 -9.18499 170.722 TD 25 1004 -1 1006 175 45 12 149
2015213S08169 2016 56 SP MM NOT_NAMED 2015-08-01 12:00:00 TS -9.70000 171.000 main 729 697 O_____________ jtwc_sh SH012016 -9.70000 171.000 TD 25 1004 -1 1006 175 45 11 154
2015213S08169 2016 56 SP MM NOT_NAMED 2015-08-01 15:00:00 TS -10.2024 171.215 main 697 678 P_____________ SH012016 -10.2024 171.215 TD 25 1003 -1 1006 175 45 10 156
2015213S08169 2016 56 SP MM NOT_NAMED 2015-08-01 18:00:00 TS -10.6000 171.400 main 678 669 O_____________ jtwc_sh SH012016 -10.6000 171.400 TD 25 1003 -1 1006 175 45 7 148
2015213S08169 2016 56 SP MM NOT_NAMED 2015-08-01 21:00:00 TS -10.8100 171.600 main 677 677 P_____________ SH012016 -10.8100 171.600 TD 25 1003 -1 1006 175 45 5 127
2015213S08169 2016 56 SP MM NOT_NAMED 2015-08-02 00:00:00 TS -10.9000 171.800 main 685 685 O_____________ jtwc_sh SH012016 -10.9000 171.800 TD 25 1004 -1 1006 175 45 4 112
2015213S08169 2016 56 SP MM NOT_NAMED 2015-08-02 03:00:00 TS -10.9725 172.015 main 694 694 P_____________ SH012016 -10.9725 172.015 TD 30 1000 -1 1006 175 45 4 104
2015213S08169 2016 56 SP MM NOT_NAMED 2015-08-02 06:00:00 TS -11.0000 172.200 main 711 711 O_____________ jtwc_sh SH012016 -11.0000 172.200 TS 35 996 0 1006 175 45 3 98
2015213S08169 2016 56 SP MM NOT_NAMED 2015-08-02 09:00:00 TS -11.0150 172.330 main 719 719 P_____________ SH012016 -11.0150 172.330 TS 37 994 0 1006 175 45 2 90
2015213S08169 2016 56 SP MM NOT_NAMED 2015-08-02 12:00:00 TS -11.0000 172.400 main 728 728 O_____________ jtwc_sh SH012016 -11.0000 172.400 TS 40 993 0 50 45 60 65 1007 175 45 1 54
2015213S08169 2016 56 SP MM NOT_NAMED 2015-08-02 15:00:00 TS -10.9575 172.415 main 728 728 P_____________ SH012016 -10.9575 172.415 TS 37 994 0 50 45 60 65 1007 175 40 1 0
2015213S08169 2016 56 SP MM NOT_NAMED 2015-08-02 18:00:00 TS -10.9000 172.400 main 735 735 O_____________ jtwc_sh SH012016 -10.9000 172.400 TS 35 996 0 50 45 60 65 1007 175 35 1 0
2015213S08169 2016 56 SP MM NOT_NAMED 2015-08-02 21:00:00 TS -10.8650 172.400 main 735 735 P_____________ SH012016 -10.8650 172.400 TS 35 996 0 50 45 60 65 1007 175 35 1 0
2015213S08169 2016 56 SP MM NOT_NAMED 2015-08-03 00:00:00 TS -10.8000 172.400 main 742 742 O_____________ jtwc_sh SH012016 -10.8000 172.400 TS 35 996 0 50 45 60 65 1007 175 35 2 11
2015213S08169 2016 56 SP MM NOT_NAMED 2015-08-03 03:00:00 TS -10.6350 172.430 main 757 757 P_____________ SH012016 -10.6350 172.430 TS 35 996 0 50 45 60 65 1007 175 35 3 0
2015213S08169 2016 56 SP MM NOT_NAMED 2015-08-03 06:00:00 TS -10.5000 172.400 main 764 748 O_____________ jtwc_sh SH012016 -10.5000 172.400 TS 35 996 0 50 45 60 65 1007 175 35 2 296
2015213S08169 2016 56 SP MM NOT_NAMED 2015-08-03 09:00:00 TS -10.5350 172.223 main 748 724 P_____________ SH012016 -10.5350 172.223 TS 35 996 0 50 45 60 65 1007 175 35 4 256
2015213S08169 2016 56 SP MM NOT_NAMED 2015-08-03 12:00:00 TS -10.6000 172.000 main 724 716 O_____________ jtwc_sh SH012016 -10.6000 172.000 TS 35 996 0 50 45 60 65 1007 175 35 4 266
2015213S08169 2016 56 SP MM NOT_NAMED 2015-08-03 15:00:00 TS -10.5575 171.850 main 708 708 P_____________ SH012016 -10.5575 171.850 TS 32 998 -1 1007 175 35 3 289
2015213S08169 2016 56 SP MM NOT_NAMED 2015-08-03 18:00:00 TS -10.5000 171.700 main 709 694 O_____________ jtwc_sh SH012016 -10.5000 171.700 TD 30 1000 -1 1007 175 35 3 284
2015213S08169 2016 56 SP MM NOT_NAMED 2015-08-03 21:00:00 TS -10.4775 171.522 main 694 679 P_____________ SH012016 -10.4775 171.522 TD 27 1002 -1 1007 175 35 4 270
2015213S08169 2016 56 SP MM NOT_NAMED 2015-08-04 00:00:00 TS -10.5000 171.300 main 679 649 O_____________ jtwc_sh SH012016 -10.5000 171.300 TD 25 1004 -1 1007 175 35 5 260
2015213S08169 2016 56 SP MM NOT_NAMED 2015-08-04 03:00:00 TS -10.5700 171.000 main 649 619 P_____________ SH012016 -10.5700 171.000 TD 25 1004 -1 1007 175 35 6 251
2015213S08169 2016 56 SP MM NOT_NAMED 2015-08-04 06:00:00 TS -10.7000 170.700 main 619 588 O_____________ jtwc_sh SH012016 -10.7000 170.700 TD 25 1004 -1 1007 175 35 6 239
2015213S08169 2016 56 SP MM NOT_NAMED 2015-08-04 09:00:00 TS -10.8850 170.470 main 588 557 P_____________ SH012016 -10.8850 170.470 TD 25 1004 -1 1007 175 35 6 225
2015213S08169 2016 56 SP MM NOT_NAMED 2015-08-04 12:00:00 TS -11.1000 170.300 main 557 542 O_____________ jtwc_sh SH012016 -11.1000 170.300 TD 25 1004 -1 1007 175 35 5 216
2015213S08169 2016 56 SP MM NOT_NAMED 2015-08-04 15:00:00 TS -11.2550 170.192 main 533 509 P_____________ SH012016 -11.2550 170.192 TD 25 1004 -1 1007 175 35 4 206
2015213S08169 2016 56 SP MM NOT_NAMED 2015-08-04 18:00:00 TS -11.5000 170.100 main 509 459 O_____________ jtwc_sh SH012016 -11.5000 170.100 TD 25 1004 -1 1007 175 35 8 197
2015213S08169 2016 56 SP MM NOT_NAMED 2015-08-04 21:00:00 TS -12.0150 169.950 main 459 404 P_____________ SH012016 -12.0150 169.950 TD 25 1004 -1 1007 175 35 10 196
2015213S08169 2016 56 SP MM NOT_NAMED 2015-08-05 00:00:00 TS -12.5000 169.800 main 404 388 O_____________ jtwc_sh SH012016 -12.5000 169.800 TD 25 1004 -1 1007 175 35 7 205
2015213S08169 2016 56 SP MM NOT_NAMED 2015-08-05 03:00:00 TS -12.6375 169.655 main 388 373 P_____________ SH012016 -12.6375 169.655 TD 25 1004 -1 1007 175 35 3 224
2015213S08169 2016 56 SP MM NOT_NAMED 2015-08-05 06:00:00 TS -12.7000 169.600 main 373 365 O_____________ jtwc_sh SH012016 -12.7000 169.600 TD 25 1004 -1 1007 175 35 3 163
2015213S08169 2016 56 SP MM NOT_NAMED 2015-08-05 09:00:00 TS -12.9201 169.742 main 366 360 P_____________ SH012016 -12.9201 169.742 TD 22 1005 -1 1007 175 35 6 150
2015213S08169 2016 56 SP MM NOT_NAMED 2015-08-05 12:00:00 NR -13.2000 169.900 main 363 345 O_____________ jtwc_sh SH012016 -13.2000 169.900 DB 20 1007 -3 1007 175 35 6 168
2015213S08169 2016 56 SP MM NOT_NAMED 2015-08-05 15:00:00 NR -13.4850 169.865 main 345 320 P_____________ SH012016 -13.4850 169.865 DB 17 1005 -3 1007 175 35 6 189
2015213S08169 2016 56 SP MM NOT_NAMED 2015-08-05 18:00:00 NR -13.8000 169.800 main 320 307 O_____________ jtwc_sh SH012016 -13.8000 169.800 DB 15 1003 -3 1007 175 35 7 183
2015213S08169 2016 56 SP MM NOT_NAMED 2015-08-05 21:00:00 NR -14.1425 169.835 main 307 302 P_____________ SH012016 -14.1425 169.835 DB 15 1003 -3 1007 175 35 7 172
2015213S08169 2016 56 SP MM NOT_NAMED 2015-08-06 00:00:00 NR -14.5000 169.900 main 302 280 O_____________ jtwc_sh SH012016 -14.5000 169.900 DB 15 1003 -3 1007 175 35 7 173
2015213S08169 2016 56 SP MM NOT_NAMED 2015-08-06 03:00:00 NR -14.8650 169.935 main 274 265 P_____________ SH012016 -14.8650 169.935 DB 15 1006 -3 1007 175 35 7 172
2015213S08169 2016 56 SP MM NOT_NAMED 2015-08-06 06:00:00 NR -15.2000 170.000 main 265 260 O_____________ jtwc_sh SH012016 -15.2000 170.000 DB 15 1010 -3 1007 175 35 7 163
2015213S08169 2016 56 SP MM NOT_NAMED 2015-08-06 09:00:00 NR -15.4950 170.127 main 261 261 P_____________ SH012016 -15.4950 170.127 DB 15 1010 -3 1007 175 35 6 150
2015213S08169 2016 56 SP MM NOT_NAMED 2015-08-06 12:00:00 NR -15.7000 170.300 main 275 275 O_____________ jtwc_sh SH012016 -15.7000 170.300 DB 15 1010 -3 1007 175 35 5 129
2015213S08169 2016 56 SP MM NOT_NAMED 2015-08-06 15:00:00 NR -15.7850 170.495 main 293 293 P_____________ SH012016 -15.7850 170.495 DB 15 1010 -3 1007 175 35 4 105
2015213S08169 2016 56 SP MM NOT_NAMED 2015-08-06 18:00:00 NR -15.8000 170.700 main 315 O_____________ jtwc_sh SH012016 -15.8000 170.700 DB 15 1010 -3 1007 175 35 4 94

デジタル台風データ・検索

IBTrACS Databaseについて

本データベースは、米国NOAAが公開する1842年以降の世界の熱帯低気圧のベストトラックデータアーカイブInternational Best Track Archive for Climate Stewardship (IBTrACS)を、ウェブで閲覧しやすい形式に変換したものです。

最終更新日:2021-12-08